createdAt,value
2022-12-28T00:00:41.791Z,5.90
2022-12-28T00:03:30.870Z,5.90
2022-12-28T00:06:19.034Z,5.90
2022-12-28T00:09:05.833Z,5.90
2022-12-28T00:11:52.926Z,5.90
2022-12-28T00:14:39.762Z,5.90
2022-12-28T00:17:26.721Z,5.90
2022-12-28T00:20:15.467Z,5.90
2022-12-28T00:23:06.621Z,5.90
2022-12-28T00:25:54.019Z,5.90
2022-12-28T00:28:42.079Z,5.90
2022-12-28T00:31:29.956Z,5.90
2022-12-28T00:34:17.062Z,5.90
2022-12-28T00:37:11.034Z,5.90
2022-12-28T00:39:59.400Z,5.90
2022-12-28T00:42:46.111Z,5.90
2022-12-28T00:45:33.102Z,5.90
2022-12-28T00:48:20.139Z,5.90
2022-12-28T00:51:10.212Z,6.00
2022-12-28T00:53:59.082Z,6.00
2022-12-28T00:56:46.351Z,6.00
2022-12-28T00:59:33.154Z,6.00
2022-12-28T01:02:20.150Z,6.10
2022-12-28T01:05:09.203Z,6.10
2022-12-28T01:07:56.335Z,6.10
2022-12-28T01:10:44.805Z,6.10
2022-12-28T01:13:31.667Z,6.10
2022-12-28T01:16:22.816Z,6.10
2022-12-28T01:19:19.916Z,6.10
2022-12-28T01:22:06.739Z,6.10
2022-12-28T01:24:54.054Z,6.20
2022-12-28T01:27:42.458Z,6.20
2022-12-28T01:30:30.583Z,6.20
2022-12-28T01:33:17.881Z,6.20
2022-12-28T01:36:08.473Z,6.20
2022-12-28T01:38:57.966Z,6.20
2022-12-28T01:41:44.830Z,6.20
2022-12-28T01:44:48.122Z,6.20
2022-12-28T01:47:36.920Z,6.20
2022-12-28T01:50:29.978Z,6.20
2022-12-28T01:53:21.811Z,6.20
2022-12-28T01:56:09.596Z,6.20
2022-12-28T01:58:58.191Z,6.20
2022-12-28T02:01:46.653Z,6.20
2022-12-28T02:04:33.717Z,6.20
2022-12-28T02:07:36.462Z,6.20
2022-12-28T02:10:42.804Z,6.20
2022-12-28T02:13:32.988Z,6.20
2022-12-28T02:16:20.055Z,6.20
2022-12-28T02:19:14.977Z,6.20
2022-12-28T02:22:29.194Z,6.20
2022-12-28T02:25:51.599Z,6.20
2022-12-28T02:29:32.075Z,6.20
2022-12-28T02:32:33.766Z,6.20
2022-12-28T02:35:35.656Z,6.20
2022-12-28T02:38:32.526Z,6.20
2022-12-28T02:41:23.863Z,6.20
2022-12-28T02:44:11.345Z,6.20
2022-12-28T02:47:18.232Z,6.20
2022-12-28T02:50:09.883Z,6.20
2022-12-28T02:54:05.772Z,6.20
2022-12-28T03:10:46.000Z,6.20
2022-12-28T03:13:54.396Z,6.20
2022-12-28T03:17:02.911Z,6.20
2022-12-28T03:20:15.553Z,6.30
2022-12-28T03:23:26.756Z,6.30
2022-12-28T03:26:33.288Z,6.30
2022-12-28T03:29:41.932Z,6.30
2022-12-28T03:32:29.199Z,6.30
2022-12-28T03:35:21.011Z,6.40
2022-12-28T03:42:56.694Z,6.40
2022-12-28T03:45:55.234Z,6.40
2022-12-28T03:48:44.983Z,6.40
2022-12-28T03:51:35.736Z,6.50
2022-12-28T03:54:23.377Z,6.50
2022-12-28T03:57:09.835Z,6.50
2022-12-28T03:59:57.181Z,6.50
2022-12-28T04:02:44.478Z,6.50
2022-12-28T04:05:31.537Z,6.60
2022-12-28T04:08:19.683Z,6.60
2022-12-28T04:11:06.619Z,6.60
2022-12-28T04:13:53.543Z,6.60
2022-12-28T04:16:40.483Z,6.60
2022-12-28T04:19:27.653Z,6.60
2022-12-28T04:22:14.146Z,6.60
2022-12-28T04:25:02.415Z,6.60
2022-12-28T04:27:49.181Z,6.60
2022-12-28T04:30:36.054Z,6.70
2022-12-28T04:33:23.007Z,6.70
2022-12-28T04:36:14.229Z,6.70
2022-12-28T04:39:01.371Z,6.70
2022-12-28T04:41:49.395Z,6.70
2022-12-28T04:44:36.261Z,6.70
2022-12-28T04:47:23.258Z,6.70
2022-12-28T04:50:10.466Z,6.70
2022-12-28T04:52:57.207Z,6.70
2022-12-28T04:55:44.231Z,6.70
2022-12-28T04:58:32.297Z,6.80
2022-12-28T05:01:21.024Z,6.80
2022-12-28T05:04:07.832Z,6.80
2022-12-28T05:06:54.707Z,6.80
2022-12-28T05:09:42.464Z,6.80
2022-12-28T05:12:29.605Z,6.80
2022-12-28T05:15:18.140Z,6.80
2022-12-28T05:18:04.981Z,6.80
2022-12-28T05:20:51.504Z,6.80
2022-12-28T05:23:39.834Z,6.90
2022-12-28T05:26:30.174Z,6.90
2022-12-28T05:29:16.674Z,6.90
2022-12-28T05:32:05.477Z,6.90
2022-12-28T05:34:52.879Z,6.90
2022-12-28T05:37:39.869Z,6.90
2022-12-28T05:40:26.364Z,6.90
2022-12-28T05:43:13.020Z,6.90
2022-12-28T05:46:04.114Z,6.90
2022-12-28T05:48:53.005Z,6.90
2022-12-28T05:51:40.102Z,6.90
2022-12-28T05:54:27.020Z,6.90
2022-12-28T05:57:13.875Z,6.90
2022-12-28T06:00:00.385Z,6.90
2022-12-28T06:02:47.108Z,6.90
2022-12-28T06:05:35.674Z,6.90
2022-12-28T06:08:22.831Z,7.00
2022-12-28T06:11:12.991Z,7.00
2022-12-28T06:14:00.807Z,7.00
2022-12-28T06:16:47.632Z,7.00
2022-12-28T06:19:34.583Z,7.00
2022-12-28T06:22:22.586Z,7.00
2022-12-28T06:25:10.800Z,7.00
2022-12-28T06:27:57.386Z,7.10
2022-12-28T06:30:50.529Z,7.00
2022-12-28T06:33:40.374Z,7.10
2022-12-28T06:36:31.232Z,7.10
2022-12-28T06:39:19.341Z,7.10
2022-12-28T06:42:05.916Z,7.10
2022-12-28T06:44:52.764Z,7.10
2022-12-28T06:47:40.089Z,7.10
2022-12-28T06:50:26.789Z,7.10
2022-12-28T06:53:13.584Z,7.10
2022-12-28T06:56:04.706Z,7.10
2022-12-28T06:58:58.459Z,7.10
2022-12-28T07:01:47.319Z,7.10
2022-12-28T07:04:34.212Z,7.10
2022-12-28T07:07:21.020Z,7.10
2022-12-28T07:10:08.957Z,7.20
2022-12-28T07:12:57.191Z,7.20
2022-12-28T07:15:43.812Z,7.20
2022-12-28T07:18:30.715Z,7.20
2022-12-28T07:21:21.488Z,7.20
2022-12-28T07:24:09.476Z,7.20
2022-12-28T07:26:55.948Z,7.20
2022-12-28T07:29:44.039Z,7.20
2022-12-28T07:32:31.201Z,7.20
2022-12-28T07:35:17.834Z,7.20
2022-12-28T07:38:04.687Z,7.30
2022-12-28T07:40:51.433Z,7.30
2022-12-28T07:43:38.886Z,7.30
2022-12-28T07:46:29.451Z,7.30
2022-12-28T07:49:16.483Z,7.30
2022-12-28T07:52:03.350Z,7.30
2022-12-28T07:54:50.011Z,7.30
2022-12-28T07:57:36.940Z,7.40
2022-12-28T08:00:23.854Z,7.40
2022-12-28T08:03:11.829Z,7.40
2022-12-28T08:06:05.310Z,7.40
2022-12-28T08:08:54.566Z,7.40
2022-12-28T08:11:44.973Z,7.40
2022-12-28T08:14:31.540Z,7.50
2022-12-28T08:17:21.167Z,7.50
2022-12-28T08:20:10.416Z,7.50
2022-12-28T08:22:56.949Z,7.50
2022-12-28T08:25:43.952Z,7.60
2022-12-28T08:28:30.785Z,7.60
2022-12-28T08:31:21.040Z,7.60
2022-12-28T08:34:10.325Z,7.70
2022-12-28T08:36:58.456Z,7.70
2022-12-28T08:39:45.289Z,7.70
2022-12-28T08:42:32.147Z,7.70
2022-12-28T08:45:19.110Z,7.70
2022-12-28T08:48:06.816Z,7.80
2022-12-28T08:50:54.199Z,7.80
2022-12-28T08:53:42.851Z,7.80
2022-12-28T08:56:32.361Z,7.80
2022-12-28T08:59:21.162Z,7.80
2022-12-28T09:02:08.189Z,7.90
2022-12-28T09:04:55.078Z,7.90
2022-12-28T09:07:41.612Z,7.90
2022-12-28T09:10:30.115Z,7.90
2022-12-28T09:13:17.051Z,7.90
2022-12-28T09:16:07.986Z,8.00
2022-12-28T09:18:57.026Z,8.00
2022-12-28T09:21:45.267Z,8.00
2022-12-28T09:24:32.155Z,8.00
2022-12-28T09:27:20.299Z,8.00
2022-12-28T09:30:08.348Z,8.10
2022-12-28T09:33:16.929Z,8.10
2022-12-28T09:36:03.770Z,8.10
2022-12-28T09:38:52.220Z,8.10
2022-12-28T09:41:48.201Z,8.10
2022-12-28T09:44:55.767Z,8.20
2022-12-28T09:47:48.144Z,8.20
2022-12-28T09:50:35.977Z,8.20
2022-12-28T09:53:31.219Z,8.20
2022-12-28T09:56:29.809Z,8.20
2022-12-28T09:59:21.340Z,8.20
2022-12-28T10:02:27.203Z,8.30
2022-12-28T10:05:15.016Z,8.30
2022-12-28T10:08:01.638Z,8.30
2022-12-28T10:10:51.564Z,8.30
2022-12-28T10:13:56.157Z,8.30
2022-12-28T10:16:48.486Z,8.30
2022-12-28T10:19:36.638Z,8.30
2022-12-28T10:22:26.555Z,8.40
2022-12-28T10:25:19.963Z,8.40
2022-12-28T10:28:11.413Z,8.40
2022-12-28T10:31:08.751Z,8.40
2022-12-28T10:33:55.355Z,8.40
2022-12-28T10:36:44.116Z,8.40
2022-12-28T10:39:33.873Z,8.50
2022-12-28T10:42:26.832Z,8.50
2022-12-28T10:45:20.170Z,8.50
2022-12-28T10:48:15.821Z,8.50
2022-12-28T10:51:13.218Z,8.50
2022-12-28T10:54:01.552Z,8.60
2022-12-28T10:56:50.522Z,8.60
2022-12-28T10:59:39.640Z,8.60
2022-12-28T11:02:30.168Z,8.60
2022-12-28T11:05:22.894Z,8.70
2022-12-28T11:08:15.279Z,8.70
2022-12-28T11:11:03.645Z,8.70
2022-12-28T11:13:57.624Z,8.70
2022-12-28T11:16:45.106Z,8.80
2022-12-28T11:19:32.138Z,8.80
2022-12-28T11:22:25.328Z,8.80
2022-12-28T11:25:17.963Z,8.80
2022-12-28T11:28:16.296Z,8.80
2022-12-28T11:31:07.052Z,8.90
2022-12-28T11:33:59.282Z,8.90
2022-12-28T11:36:46.974Z,8.90
2022-12-28T11:39:47.297Z,8.90
2022-12-28T11:43:05.246Z,8.90
2022-12-28T11:45:56.830Z,8.90
2022-12-28T11:48:58.793Z,9.00
2022-12-28T11:51:45.464Z,9.00
2022-12-28T11:54:51.109Z,9.00
2022-12-28T11:57:40.403Z,9.00
2022-12-28T12:00:49.456Z,9.10
2022-12-28T12:04:40.049Z,9.10
2022-12-28T12:07:49.623Z,9.10
2022-12-28T12:10:42.414Z,9.10
2022-12-28T12:13:51.475Z,9.20
2022-12-28T12:16:50.005Z,9.20
2022-12-28T12:19:43.429Z,9.20
2022-12-28T12:22:35.432Z,9.20
2022-12-28T12:25:27.976Z,9.20
2022-12-28T12:28:32.615Z,9.20
2022-12-28T12:31:29.591Z,9.20
2022-12-28T12:34:26.041Z,9.30
2022-12-28T12:37:36.621Z,9.20
2022-12-28T12:41:02.499Z,9.20
2022-12-28T12:44:11.180Z,9.20
2022-12-28T12:47:22.020Z,9.20
2022-12-28T12:50:21.767Z,9.30
2022-12-28T12:53:33.655Z,9.20
2022-12-28T12:56:39.937Z,9.20
2022-12-28T12:59:53.155Z,9.20
2022-12-28T13:03:04.327Z,9.20
2022-12-28T13:05:56.026Z,9.20
2022-12-28T13:08:50.786Z,9.20
2022-12-28T13:11:40.251Z,9.20
2022-12-28T13:14:27.470Z,9.20
2022-12-28T13:17:20.785Z,9.10
2022-12-28T13:20:20.618Z,9.10
2022-12-28T13:23:16.608Z,9.10
2022-12-28T13:26:04.682Z,9.10
2022-12-28T13:28:58.927Z,9.10
2022-12-28T13:31:49.632Z,9.10
2022-12-28T13:34:37.650Z,9.10
2022-12-28T13:37:24.681Z,9.00
2022-12-28T13:40:16.366Z,9.00
2022-12-28T13:43:43.876Z,9.10
2022-12-28T13:46:32.297Z,9.10
2022-12-28T13:49:21.776Z,9.10
2022-12-28T13:52:16.794Z,9.10
2022-12-28T13:55:08.340Z,9.10
2022-12-28T13:58:03.515Z,9.10
2022-12-28T14:00:54.533Z,9.10
2022-12-28T14:03:46.464Z,9.10
2022-12-28T14:06:34.408Z,9.20
2022-12-28T14:09:22.870Z,9.10
2022-12-28T14:12:10.474Z,9.20
2022-12-28T14:14:59.107Z,9.20
2022-12-28T14:17:50.177Z,9.10
2022-12-28T14:20:48.249Z,9.10
2022-12-28T14:23:37.823Z,9.10
2022-12-28T14:26:25.386Z,9.10
2022-12-28T14:29:20.765Z,9.00
2022-12-28T14:32:15.181Z,9.10
2022-12-28T14:35:05.894Z,9.10
2022-12-28T14:37:56.914Z,9.00
2022-12-28T14:40:43.829Z,9.00
2022-12-28T14:43:33.916Z,9.00
2022-12-28T14:46:33.763Z,9.00
2022-12-28T14:49:36.569Z,9.00
2022-12-28T14:52:47.044Z,8.90
2022-12-28T14:55:38.172Z,8.90
2022-12-28T14:58:32.022Z,8.90
2022-12-28T15:01:20.813Z,8.90
2022-12-28T15:04:07.857Z,8.90
2022-12-28T15:06:54.826Z,8.90
2022-12-28T15:09:42.853Z,8.90
2022-12-28T15:12:29.632Z,8.80
2022-12-28T15:15:16.725Z,8.80
2022-12-28T15:18:05.289Z,8.80
2022-12-28T15:20:53.092Z,8.80
2022-12-28T15:23:39.695Z,8.80
2022-12-28T15:26:28.531Z,8.80
2022-12-28T15:29:22.126Z,8.80
2022-12-28T15:32:18.883Z,8.70
2022-12-28T15:35:06.947Z,8.70
2022-12-28T15:37:53.868Z,8.70
2022-12-28T15:40:41.253Z,8.80
2022-12-28T15:43:29.478Z,8.80
2022-12-28T15:46:16.212Z,8.80
2022-12-28T15:49:05.915Z,8.80
2022-12-28T15:51:55.353Z,8.70
2022-12-28T15:54:46.984Z,8.80
2022-12-28T15:57:33.989Z,8.70
2022-12-28T16:00:22.118Z,8.70
2022-12-28T16:03:12.459Z,8.70
2022-12-28T16:06:00.672Z,8.70
2022-12-28T16:08:47.434Z,8.70
2022-12-28T16:11:34.971Z,8.70
2022-12-28T16:14:21.944Z,8.70
2022-12-28T16:17:09.847Z,8.70
2022-12-28T16:19:56.865Z,8.70
2022-12-28T16:22:43.457Z,8.70
2022-12-28T16:25:30.322Z,8.70
2022-12-28T16:28:16.711Z,8.70
2022-12-28T16:31:04.352Z,8.70
2022-12-28T16:33:55.889Z,8.70
2022-12-28T16:36:43.504Z,8.70
2022-12-28T16:39:30.802Z,8.70
2022-12-28T16:42:18.041Z,8.70
2022-12-28T16:45:05.586Z,8.70
2022-12-28T16:47:52.354Z,8.70
2022-12-28T16:50:40.680Z,8.70
2022-12-28T16:53:29.266Z,8.70
2022-12-28T16:56:16.155Z,8.70
2022-12-28T16:59:02.695Z,8.70
2022-12-28T17:01:51.585Z,8.70
2022-12-28T17:04:38.439Z,8.70
2022-12-28T17:07:26.422Z,8.70
2022-12-28T17:10:13.699Z,8.80
2022-12-28T17:13:06.616Z,8.80
2022-12-28T17:16:04.638Z,8.80
2022-12-28T17:18:51.453Z,8.80
2022-12-28T17:21:38.420Z,8.80
2022-12-28T17:24:34.594Z,8.80
2022-12-28T17:27:21.269Z,8.80
2022-12-28T17:30:09.377Z,8.80
2022-12-28T17:32:56.996Z,8.80
2022-12-28T17:35:43.681Z,8.80
2022-12-28T17:38:30.858Z,8.80
2022-12-28T17:41:25.387Z,8.90
2022-12-28T17:44:12.737Z,8.80
2022-12-28T17:46:59.457Z,8.90
2022-12-28T17:49:46.397Z,8.90
2022-12-28T17:52:33.349Z,8.90
2022-12-28T17:55:19.953Z,8.80
2022-12-28T17:58:13.540Z,8.90
2022-12-28T18:01:00.934Z,8.90
2022-12-28T18:03:47.629Z,8.80
2022-12-28T18:06:34.482Z,8.80
2022-12-28T18:09:27.490Z,8.80
2022-12-28T18:12:16.495Z,8.80
2022-12-28T18:15:05.169Z,8.80
2022-12-28T18:17:51.768Z,8.80
2022-12-28T18:20:38.440Z,8.80
2022-12-28T18:23:25.578Z,8.80
2022-12-28T18:26:17.321Z,8.80
2022-12-28T18:29:04.087Z,8.80
2022-12-28T18:31:52.337Z,8.80
2022-12-28T18:34:39.105Z,8.70
2022-12-28T18:37:25.910Z,8.70
2022-12-28T18:40:12.697Z,8.70
2022-12-28T18:42:59.592Z,8.70
2022-12-28T18:45:53.190Z,8.70
2022-12-28T18:48:43.475Z,8.70
2022-12-28T18:51:33.140Z,8.70
2022-12-28T18:54:19.904Z,8.70
2022-12-28T18:57:06.966Z,8.70
2022-12-28T18:59:53.703Z,8.70
2022-12-28T19:02:40.696Z,8.70
2022-12-28T19:05:28.857Z,8.70
2022-12-28T19:08:15.335Z,8.70
2022-12-28T19:11:02.450Z,8.60
2022-12-28T19:13:48.892Z,8.70
2022-12-28T19:16:36.125Z,8.70
2022-12-28T19:19:22.899Z,8.70
2022-12-28T19:22:10.543Z,8.70
2022-12-28T19:24:57.240Z,8.70
2022-12-28T19:27:44.082Z,8.70
2022-12-28T19:30:30.798Z,8.60
2022-12-28T19:33:17.348Z,8.60
2022-12-28T19:36:04.338Z,8.60
2022-12-28T19:38:54.190Z,8.60
2022-12-28T19:41:40.886Z,8.60
2022-12-28T19:44:27.444Z,8.60
2022-12-28T19:47:13.967Z,8.60
2022-12-28T19:50:00.776Z,8.60
2022-12-28T19:52:47.731Z,8.60
2022-12-28T19:55:36.885Z,8.60
2022-12-28T19:58:29.384Z,8.60
2022-12-28T20:01:19.549Z,8.60
2022-12-28T20:04:13.012Z,8.60
2022-12-28T20:07:00.538Z,8.60
2022-12-28T20:09:50.458Z,8.60
2022-12-28T20:12:38.865Z,8.60
2022-12-28T20:15:25.344Z,8.60
2022-12-28T20:18:11.831Z,8.60
2022-12-28T20:21:20.007Z,8.60
2022-12-28T20:24:09.287Z,8.60
2022-12-28T20:27:01.473Z,8.60
2022-12-28T20:29:49.775Z,8.60
2022-12-28T20:32:41.242Z,8.60
2022-12-28T20:35:31.441Z,8.70
2022-12-28T20:38:18.217Z,8.70
2022-12-28T20:41:08.511Z,8.70
2022-12-28T20:43:54.205Z,8.70
2022-12-28T20:46:43.703Z,8.70
2022-12-28T20:49:31.516Z,8.70
2022-12-28T20:52:18.446Z,8.80
2022-12-28T20:55:05.304Z,8.80
2022-12-28T20:57:53.333Z,8.80
2022-12-28T21:00:40.572Z,8.80
2022-12-28T21:03:28.904Z,8.80
2022-12-28T21:06:16.096Z,8.80
2022-12-28T21:09:02.581Z,8.90
2022-12-28T21:11:49.286Z,8.90
2022-12-28T21:14:36.129Z,8.90
2022-12-28T21:17:24.085Z,8.90
2022-12-28T21:20:14.470Z,9.00
2022-12-28T21:23:01.135Z,9.00
2022-12-28T21:25:47.663Z,9.00
2022-12-28T21:28:35.504Z,9.10
2022-12-28T21:31:22.165Z,9.10
2022-12-28T21:34:08.728Z,9.10
2022-12-28T21:37:17.697Z,9.10
2022-12-28T21:40:07.856Z,9.10
2022-12-28T21:42:54.390Z,9.20
2022-12-28T21:45:40.946Z,9.20
2022-12-28T21:48:28.062Z,9.20
2022-12-28T21:54:14.765Z,9.20
2022-12-28T21:57:01.396Z,9.30
2022-12-28T21:59:48.287Z,9.20
2022-12-28T22:02:52.837Z,9.20
2022-12-28T22:05:57.155Z,9.30
2022-12-28T22:09:01.637Z,9.30
2022-12-28T22:12:07.739Z,9.30
2022-12-28T22:15:14.610Z,9.30
2022-12-28T22:18:04.326Z,9.40
2022-12-28T22:20:50.848Z,9.40
2022-12-28T22:23:37.400Z,9.40
2022-12-28T22:26:24.281Z,9.40
2022-12-28T22:29:12.581Z,9.40
2022-12-28T22:31:59.512Z,9.50
2022-12-28T22:34:45.977Z,9.50
2022-12-28T22:37:34.205Z,9.50
2022-12-28T22:40:21.366Z,9.50
2022-12-28T22:43:08.308Z,9.50
2022-12-28T22:46:04.657Z,9.50
2022-12-28T22:48:51.344Z,9.50
2022-12-28T22:51:37.927Z,9.60
2022-12-28T22:54:24.703Z,9.60
2022-12-28T22:57:11.672Z,9.60
2022-12-28T22:59:57.918Z,9.60
2022-12-28T23:02:46.132Z,9.60
2022-12-28T23:05:33.245Z,9.70
2022-12-28T23:08:19.589Z,9.70
2022-12-28T23:11:29.515Z,9.70
2022-12-28T23:14:41.063Z,9.70
2022-12-28T23:17:29.544Z,9.70
2022-12-28T23:20:36.153Z,9.70
2022-12-28T23:23:40.729Z,9.80
2022-12-28T23:26:45.308Z,9.80
2022-12-28T23:29:32.955Z,9.80
2022-12-28T23:32:19.949Z,9.80
2022-12-28T23:35:08.065Z,9.80
2022-12-28T23:37:56.485Z,9.80
2022-12-28T23:40:43.711Z,9.80
2022-12-28T23:43:32.656Z,9.80
2022-12-28T23:46:19.560Z,9.80
2022-12-28T23:49:07.919Z,9.80
2022-12-28T23:51:55.170Z,9.80
2022-12-28T23:54:43.254Z,9.80
2022-12-28T23:57:30.050Z,9.90
